Flight Track Log - Related Links

Times and Time Zones

All times are in EDT time to prevent confusion due to time zone crossing. See the EGF3376 flight status page for this flight to view local times or setup timezone preferences in your user account.

Time Position Orientation Groundspeed Altitude Reporting Facility
EDT Latitude Longitude Course Direction KTS MPH feet Rate Location/Type
Sat 09:39:49 PM 32.8500 -97.0500 357° North 168 193 2,500  Level Dallas / Fort Worth TRACON
Sat 09:40:49 PM 32.8000 -97.0667 196° South 202 232 4,800 2,000 Climbing Dallas / Fort Worth TRACON
Sat 09:41:00 PM 32.8380 -96.8024 10° North  Level FlightAware Approximate
Sat 09:41:55 PM 32.7667 -97.1333 239° Southwest 280 322 6,700  Level Dallas / Fort Worth TRACON
Sat 09:42:00 PM 32.9562 -96.8000 North  Level FlightAware Approximate
Sat 09:42:27 PM 32.8122 -97.1564 337° Northwest 286 329 8,500  Level Fort Worth Center
Sat 09:43:00 PM 33.0745 -96.8005 357° North  Level FlightAware Approximate
Sat 09:43:27 PM 32.8872 -97.1239 20° North 278 320 10,600  Level Fort Worth Center
Sat 09:44:00 PM 33.1926 -96.8079 357° North  Level FlightAware Approximate
Sat 09:44:27 PM 32.9625 -97.0842 24° Northeast 317 365 11,700  Level Fort Worth Center
Sat 09:45:27 PM 33.0478 -97.0392 24° Northeast 330 380 12,800 1,000 Climbing Fort Worth Center
Sat 09:46:27 PM 33.1394 -96.9892 25° Northeast 345 397 13,700 1,000 Climbing Fort Worth Center
Sat 09:47:27 PM 33.2375 -96.9392 23° Northeast 368 423 14,800 1,000 Climbing Fort Worth Center
Sat 09:48:27 PM 33.3292 -96.8914 24° Northeast 389 448 15,700 1,000 Climbing Fort Worth Center
Sat 09:49:27 PM 33.4417 -96.8308 24° Northeast 398 458 16,800 1,050 Climbing Fort Worth Center
Sat 09:50:27 PM 33.5394 -96.7706 27° Northeast 398 458 17,800 950 Climbing Fort Worth Center
Sat 09:51:27 PM 33.6392 -96.7025 30° Northeast 404 465 18,700 950 Climbing Fort Worth Center
Sat 09:52:27 PM 33.7411 -96.6367 28° Northeast 410 472 19,700 950 Climbing Fort Worth Center
Sat 09:53:27 PM 33.8367 -96.5783 27° Northeast 410 472 20,600 950 Climbing Fort Worth Center
Sat 09:54:27 PM 33.9406 -96.5097 29° Northeast 420 483 21,600 1,000 Climbing Fort Worth Center
Sat 09:55:27 PM 34.0444 -96.4408 29° Northeast 420 483 22,600 1,050 Climbing Fort Worth Center
Sat 09:56:27 PM 34.1522 -96.3569 33° Northeast 420 483 23,700 1,050 Climbing Fort Worth Center
Sat 09:57:27 PM 34.2517 -96.2753 34° Northeast 420 483 24,700 1,000 Climbing Fort Worth Center
Sat 09:58:27 PM 34.3553 -96.1908 34° Northeast 431 496 25,700 1,000 Climbing Fort Worth Center
Sat 09:59:27 PM 34.4567 -96.1064 34° Northeast 437 503 26,700 1,000 Climbing Fort Worth Center
Sat 10:00:27 PM 34.5539 -96.0267 34° Northeast 437 503 27,700 1,000 Climbing Fort Worth Center
Sat 10:01:27 PM 34.6550 -95.9419 35° Northeast 437 503 28,700 1,000 Climbing Fort Worth Center
Sat 10:02:27 PM 34.7542 -95.8592 34° Northeast 437 503 29,700 1,000 Climbing Fort Worth Center
Sat 10:03:27 PM 34.8533 -95.7764 34° Northeast 432 497 30,700 1,000 Climbing Fort Worth Center
Sat 10:04:27 PM 34.9650 -95.7058 27° Northeast 432 497 31,700 947 Climbing Fort Worth Center
Sat 10:06:37 PM 35.1797 -95.5636 28° Northeast 440 506 33,700 942 Climbing Kansas City Center
Sat 10:07:38 PM 35.2886 -95.4906 29° Northeast 443 510 34,700 992 Climbing Kansas City Center
Sat 10:08:38 PM 35.3958 -95.4189 29° Northeast 442 509 35,700 992 Climbing Kansas City Center
Sat 10:09:39 PM 35.5028 -95.3475 29° Northeast 438 504 36,700 639 Climbing Kansas City Center
Sat 10:10:40 PM 35.6086 -95.2781 28° Northeast 433 498 37,000 148 Climbing Kansas City Center
Sat 10:11:41 PM 35.7419 -95.1883 29° Northeast 436 502 37,000  Level Memphis Center
Sat 10:12:41 PM 35.8531 -95.1156 28° Northeast 442 509 37,000  Level Memphis Center
Sat 10:13:41 PM 35.9644 -95.0397 29° Northeast 447 514 37,000  Level Memphis Center
Sat 10:15:43 PM 36.1792 -94.8919 29° Northeast 450 518 37,000  Level Kansas City Center
Sat 10:16:41 PM 36.2875 -94.8172 29° Northeast 449 517 37,000  Level Kansas City Center
Sat 10:17:44 PM 36.3961 -94.7433 29° Northeast 448 516 37,000  Level Kansas City Center
Sat 10:18:45 PM 36.5036 -94.6703 29° Northeast 444 511 37,000  Level Kansas City Center
Sat 10:19:43 PM 36.6117 -94.5950 29° Northeast 445 512 37,000  Level Kansas City Center
Sat 10:20:46 PM 36.7219 -94.5186 29° Northeast 451 519 37,000  Level Kansas City Center
Sat 10:21:44 PM 36.8331 -94.4431 29° Northeast 453 521 37,000  Level Kansas City Center
Sat 10:22:46 PM 36.9428 -94.3617 31° Northeast 457 526 37,000  Level Kansas City Center
Sat 10:23:47 PM 37.0536 -94.2797 31° Northeast 461 531 37,000  Level Kansas City Center
Sat 10:24:48 PM 37.1628 -94.1972 31° Northeast 460 529 37,000  Level Kansas City Center
Sat 10:25:48 PM 37.2717 -94.1133 32° Northeast 459 528 37,000  Level Kansas City Center
Sat 10:26:49 PM 37.3914 -94.0231 31° Northeast 458 527 37,000  Level Kansas City Center
Sat 10:27:49 PM 37.4997 -93.9383 32° Northeast 457 526 37,000  Level Kansas City Center
Sat 10:28:50 PM 37.6081 -93.8553 31° Northeast 454 522 37,000  Level Kansas City Center
Sat 10:29:50 PM 37.7175 -93.7722 31° Northeast 455 524 37,000  Level Kansas City Center
Sat 10:30:49 PM 37.8275 -93.6875 31° Northeast 459 528 37,000  Level Kansas City Center
Sat 10:31:50 PM 37.9347 -93.6039 32° Northeast 454 522 37,000  Level Kansas City Center
Sat 10:32:51 PM 38.0439 -93.5197 31° Northeast 455 524 37,000  Level Kansas City Center
Sat 10:33:50 PM 38.1522 -93.4353 31° Northeast 454 522 37,000  Level Kansas City Center
Sat 10:34:53 PM 38.2611 -93.3494 32° Northeast 455 524 37,000  Level Kansas City Center
Sat 10:35:54 PM 38.3697 -93.2639 32° Northeast 455 524 37,000  Level Kansas City Center
Sat 10:36:52 PM 38.4792 -93.1792 31° Northeast 456 525 37,000  Level Kansas City Center
Sat 10:37:52 PM 38.5872 -93.0933 32° Northeast 455 524 37,000  Level Kansas City Center
Sat 10:38:54 PM 38.6983 -93.0036 32° Northeast 462 532 37,000  Level Kansas City Center
Sat 10:39:53 PM 38.8064 -92.9167 32° Northeast 459 528 37,000  Level Kansas City Center
Sat 10:40:55 PM 38.9147 -92.8289 32° Northeast 457 526 37,000  Level Kansas City Center
Sat 10:41:54 PM 39.0250 -92.7419 31° Northeast 455 524 37,000  Level Kansas City Center
Sat 10:42:55 PM 39.1306 -92.6572 32° Northeast 453 521 37,000  Level Kansas City Center
Sat 10:43:56 PM 39.2392 -92.5700 32° Northeast 454 522 37,000  Level Kansas City Center
Sat 10:44:56 PM 39.3456 -92.4817 33° Northeast 460 529 37,000  Level Kansas City Center
Sat 10:45:57 PM 39.4511 -92.3967 32° Northeast 456 525 37,000  Level Kansas City Center
Sat 10:46:58 PM 39.5569 -92.3119 32° Northeast 454 522 37,000  Level Kansas City Center
Sat 10:47:58 PM 39.6622 -92.2261 32° Northeast 452 520 37,000  Level Kansas City Center
Sat 10:49:00 PM 39.7669 -92.1400 32° Northeast 452 520 37,000  Level Kansas City Center
Sat 10:49:59 PM 39.8733 -92.0531 32° Northeast 456 525 37,000  Level Kansas City Center
Sat 10:51:00 PM 39.9792 -91.9644 33° Northeast 457 526 37,000  Level Kansas City Center
Sat 10:52:01 PM 40.1044 -91.8594 33° Northeast 455 524 37,000  Level Kansas City Center
Sat 10:53:02 PM 40.2078 -91.7731 33° Northeast 450 518 37,000  Level Kansas City Center
Sat 10:54:00 PM 40.3128 -91.6844 33° Northeast 452 520 37,000 -403 Level Kansas City Center
Sat 10:55:01 PM 40.4194 -91.5969 32° Northeast 454 522 36,200 -462 Descending Kansas City Center
Sat 10:56:10 PM 40.5369 -91.4969 33° Northeast 426 490 36,000 -92 Descending Chicago Center
Sat 10:57:11 PM 40.6375 -91.4125 32° Northeast 429 494 36,000  Level Chicago Center
Sat 10:58:11 PM 40.7400 -91.3253 33° Northeast 441 507 36,000  Level Chicago Center
Sat 10:59:12 PM 40.8317 -91.2456 33° Northeast 442 509 36,000  Level Chicago Center
Sat 11:00:12 PM 40.9367 -91.1572 32° Northeast 444 511 36,000  Level Chicago Center
Sat 11:01:12 PM 41.0400 -91.0658 34° Northeast 444 511 36,000  Level Chicago Center
Sat 11:02:13 PM 41.1456 -90.9764 33° Northeast 447 514 36,000  Level Chicago Center
Sat 11:03:13 PM 41.2500 -90.8858 33° Northeast 448 516 36,000  Level Chicago Center
Sat 11:04:14 PM 41.3536 -90.7964 33° Northeast 444 511 36,000  Level Chicago Center
Sat 11:05:14 PM 41.4572 -90.7033 34° Northeast 445 512 36,000  Level Chicago Center
Sat 11:06:15 PM 41.5617 -90.6136 33° Northeast 445 512 36,000  Level Chicago Center
Sat 11:07:15 PM 41.6658 -90.5219 33° Northeast 446 513 36,000  Level Chicago Center
Sat 11:08:16 PM 41.7714 -90.4331 32° Northeast 447 514 36,000  Level Chicago Center
Sat 11:09:16 PM 41.8881 -90.3442 30° Northeast 443 510 36,000 -350 Level Chicago Center
Sat 11:10:16 PM 41.9928 -90.2608 31° Northeast 442 509 35,300 -793 Descending Chicago Center
Sat 11:11:17 PM 42.0950 -90.1806 30° Northeast 431 496 34,400 -1,041 Descending Chicago Center
Sat 11:12:17 PM 42.1964 -90.1014 30° Northeast 426 490 33,200 -1,983 Descending Chicago Center
Sat 11:13:18 PM 42.3000 -90.0194 30° Northeast 433 498 30,400 -2,876 Descending Chicago Center
Sat 11:14:18 PM 42.4008 -89.9358 31° Northeast 431 496 27,400 -3,200 Descending Chicago Center
Sat 11:15:18 PM 42.5114 -89.8469 31° Northeast 431 496 24,000 -3,273 Descending Chicago Center
Sat 11:16:19 PM 42.6117 -89.7681 30° Northeast 419 482 20,800 -3,074 Descending Chicago Center
Sat 11:17:19 PM 42.7067 -89.6914 31° Northeast 401 461 17,800 -3,223 Descending Chicago Center
Sat 11:18:20 PM 42.7969 -89.6172 31° Northeast 384 442 14,300 -2,926 Descending Chicago Center
Sat 11:19:20 PM 42.8889 -89.5636 23° Northeast 362 417 11,900 -2,250 Descending Chicago Center
Sat 11:20:20 PM 42.9694 -89.5183 22° Northeast 322 371 9,800 -2,182 Descending Chicago Center
Sat 11:21:21 PM 43.0375 -89.4856 19° North 265 305 7,500 -2,231 Descending Chicago Center
Sat 11:22:21 PM 43.1025 -89.4592 17° North 251 289 5,300 -1,800 Descending Chicago Center
Sat 11:23:21 PM 43.1622 -89.4525 North 223 257 3,900 -1,091 Descending Chicago Center
Sat 11:24:22 PM 43.2078 -89.4244 24° Northeast 205 236 3,100 -787 Descending Chicago Center

Login

Don't have an account? Register now (free) for customized features, flight alerts, and more!